Weather at Sandefjord Airport, Torp

Public forecast

Using degrees Celsius for public forecast. Weather courtesy of forecast.io.

Current aviation weather report (METAR) for Sandefjord Airport, Torp

Retrieved 2021/05/11 01:20 UTC (0 seconds ago):

ENTO 110120Z AUTO 20006KT 6000 OVC002/// 08/08 Q1010

Aviation forecast (TAF) for Sandefjord Airport, Torp

Retrieved 2021-05-11 00:00 UTC (1 hour ago):

TAF ENTO 102300Z 1100/1124 20015KT 7000 BKN004 TEMPO 1100/1107 0300 -DZ FG VV002 BECMG 1101/1104 VRB03KT BECMG 1107/1110 BKN010 PROB40 1112/1121 SCT025 PROB40 1121/1124 36010KT SHRA SCT022CB